Time;durP1;ratioP1;P1;durP2;ratioP2;P2;SDS_P1;SDS_P2;PMS_P1;PMS_P2;Temp;Humidity;BMP_temperature;BMP_pressure;BME280_temperature;BME280_humidity;BME280_pressure;Samples;Min_cycle;Max_cycle;Signal;HPM_P1;HPM_P2
2022/05/24 00:00:01;;;;;;;4.20;1.50;;;;;;;15.68;65.57;99414.56;4953944;28;20213;-71
2022/05/24 00:02:28;;;;;;;2.13;1.27;;;;;;;15.70;65.20;99411.81;4950802;28;20222;-71
2022/05/24 00:04:54;;;;;;;3.43;1.47;;;;;;;15.71;65.62;99414.34;4952599;28;20244;-70
2022/05/24 00:07:20;;;;;;;1.90;1.70;;;;;;;15.74;65.49;99412.47;4945944;28;20839;-70
2022/05/24 00:09:48;;;;;;;5.90;1.33;;;;;;;15.75;65.77;99408.94;4955287;28;20205;-70
2022/05/24 00:12:15;;;;;;;2.33;1.30;;;;;;;15.76;65.43;99413.22;4963008;28;20205;-71
2022/05/24 00:17:25;;;;;;;2.37;1.60;;;;;;;15.74;65.08;99408.03;4959568;28;20618;-70
2022/05/24 00:19:51;;;;;;;2.93;1.63;;;;;;;15.70;65.91;99411.81;4952349;28;20191;-70
2022/05/24 00:22:18;;;;;;;2.50;1.70;;;;;;;15.66;65.75;99398.06;4957002;28;20233;-71
2022/05/24 00:24:44;;;;;;;1.60;1.50;;;;;;;15.63;66.19;99395.63;4949974;28;20206;-70
2022/05/24 00:27:12;;;;;;;2.40;1.70;;;;;;;15.58;66.67;99389.84;4955444;28;20213;-71
2022/05/24 00:29:39;;;;;;;3.00;1.93;;;;;;;15.56;67.29;99386.47;4955113;28;20214;-71
2022/05/24 00:32:06;;;;;;;2.63;1.60;;;;;;;15.58;66.26;99387.19;4958193;28;20274;-71
2022/05/24 00:34:32;;;;;;;1.60;1.50;;;;;;;15.59;66.40;99388.91;4953617;28;20218;-71
2022/05/24 00:36:59;;;;;;;2.10;1.73;;;;;;;15.62;66.50;99382.59;4953511;28;20692;-71
2022/05/24 00:39:25;;;;;;;2.93;1.60;;;;;;;15.64;66.63;99384.19;4952010;28;20206;-70
2022/05/24 00:41:57;;;;;;;2.53;1.83;;;;;;;15.67;66.58;99383.13;4951900;28;20211;-70
2022/05/24 00:44:30;;;;;;;2.23;1.70;;;;;;;15.65;66.76;99372.72;4952736;28;20202;-70
2022/05/24 00:47:01;;;;;;;3.33;1.93;;;;;;;15.68;66.69;99367.25;4953320;28;20205;-70
2022/05/24 00:49:31;;;;;;;2.30;1.80;;;;;;;15.69;66.40;99371.56;4946979;28;20221;-70
2022/05/24 00:52:03;;;;;;;2.00;1.73;;;;;;;15.73;66.06;99371.38;4954522;28;20202;-71
2022/05/24 00:54:33;;;;;;;1.57;1.47;;;;;;;15.75;66.44;99366.88;4954539;28;20202;-70
2022/05/24 00:57:05;;;;;;;2.10;1.70;;;;;;;15.74;67.02;99366.00;4951765;28;20202;-70
2022/05/24 00:59:41;;;;;;;3.97;1.70;;;;;;;15.75;66.79;99372.97;4953634;28;20208;-70
2022/05/24 01:02:08;;;;;;;2.00;1.40;;;;;;;15.77;66.90;99368.47;4950896;28;20257;-70
2022/05/24 01:08:57;;;;;;;1.80;1.70;;;;;;;15.76;66.87;99372.03;4955336;28;20298;-71
2022/05/24 01:11:26;;;;;;;2.47;1.63;;;;;;;15.78;67.44;99367.53;4950714;28;20562;-71
2022/05/24 01:13:54;;;;;;;2.83;1.80;;;;;;;15.78;67.25;99370.16;4950716;28;20519;-70
2022/05/24 01:16:22;;;;;;;4.77;2.00;;;;;;;15.78;67.33;99371.94;4956144;28;20211;-70
2022/05/24 01:18:48;;;;;;;2.67;1.70;;;;;;;15.79;67.29;99363.09;4950224;28;20213;-70
2022/05/24 01:21:21;;;;;;;3.83;1.83;;;;;;;15.78;68.54;99366.69;4953876;28;20214;-70
2022/05/24 01:27:35;;;;;;;4.27;1.80;;;;;;;15.78;68.13;99356.19;4938663;29;20212;-71
2022/05/24 01:30:02;;;;;;;2.33;1.87;;;;;;;15.80;68.15;99354.28;4946862;28;20246;-71
2022/05/24 01:38:16;;;;;;;2.03;1.57;;;;;;;15.79;69.75;99355.22;4907036;29;20214;-70
2022/05/24 01:40:43;;;;;;;4.17;1.77;;;;;;;15.77;71.14;99365.00;4904346;29;20212;-71
2022/05/24 01:43:10;;;;;;;3.27;1.90;;;;;;;15.76;70.51;99369.41;4925640;28;20246;-71
2022/05/24 01:45:45;;;;;;;2.20;1.87;;;;;;;15.77;70.94;99373.72;4959037;28;20202;-70
2022/05/24 01:48:15;;;;;;;1.97;1.80;;;;;;;15.77;72.10;99373.72;4957878;28;20218;-70
2022/05/24 01:50:43;;;;;;;1.70;1.60;;;;;;;15.76;72.68;99372.03;4948176;28;20266;-71
2022/05/24 01:53:16;;;;;;;2.13;1.90;;;;;;;15.76;73.98;99368.56;4954787;28;20242;-71
2022/05/24 01:55:46;;;;;;;2.67;2.10;;;;;;;15.76;75.10;99368.56;4951298;28;20207;-70
2022/05/24 01:58:17;;;;;;;2.33;1.90;;;;;;;15.75;74.69;99366.88;4949701;28;20203;-71
2022/05/24 02:00:47;;;;;;;2.13;1.93;;;;;;;15.75;75.13;99364.25;4952517;28;20205;-70
2022/05/24 02:03:17;;;;;;;2.40;2.03;;;;;;;15.74;75.09;99360.75;4955417;28;20217;-70
2022/05/24 02:05:52;;;;;;;2.27;1.80;;;;;;;15.74;74.64;99358.13;4956736;28;20207;-71
2022/05/24 02:08:19;;;;;;;1.70;1.60;;;;;;;15.73;75.16;99358.25;4947947;28;20222;-71
2022/05/24 02:10:50;;;;;;;2.17;1.77;;;;;;;15.74;74.82;99365.16;4955892;28;20221;-71
2022/05/24 02:20:54;;;;;;;1.93;1.73;;;;;;;15.77;75.40;99362.38;4889891;29;20208;-71
2022/05/24 02:23:20;;;;;;;1.87;1.77;;;;;;;15.78;75.47;99361.44;4924275;28;20239;-71
2022/05/24 02:25:51;;;;;;;4.97;1.80;;;;;;;15.79;75.00;99353.41;4956276;28;20199;-71
2022/05/24 02:28:20;;;;;;;3.90;1.77;;;;;;;15.81;74.82;99358.56;4952408;28;20229;-71
2022/05/24 02:34:34;;;;;;;3.00;1.90;;;;;;;15.84;75.83;99353.13;4953182;28;20185;-70
2022/05/24 02:43:36;;;;;;;3.00;2.00;;;;;;;15.93;76.01;99364.78;4950399;28;20207;-70
2022/05/24 02:46:02;;;;;;;4.50;1.90;;;;;;;15.94;76.49;99355.97;4950201;28;20206;-71
2022/05/24 02:48:29;;;;;;;3.67;1.97;;;;;;;15.95;76.28;99363.72;4950589;28;20760;-71
2022/05/24 02:50:55;;;;;;;3.50;2.17;;;;;;;15.96;75.91;99360.16;4950949;28;20660;-71
2022/05/24 02:53:22;;;;;;;2.20;2.00;;;;;;;15.99;75.93;99364.34;4949828;28;20265;-71
2022/05/24 02:55:50;;;;;;;2.73;1.93;;;;;;;16.00;76.69;99353.75;4954288;28;20191;-70
2022/05/24 02:58:17;;;;;;;2.57;2.10;;;;;;;16.03;76.76;99355.34;4929036;28;20712;-70
2022/05/24 03:00:43;;;;;;;3.23;2.00;;;;;;;16.06;77.27;99365.66;4950462;28;20209;-71
2022/05/24 03:03:11;;;;;;;4.20;2.00;;;;;;;16.06;77.09;99366.47;4949804;28;20240;-70
2022/05/24 03:05:37;;;;;;;2.47;2.27;;;;;;;16.07;78.13;99360.25;4947228;28;20207;-70
2022/05/24 03:10:49;;;;;;;2.90;2.27;;;;;;;16.13;77.92;99356.38;4949728;28;20202;-70
2022/05/24 03:16:00;;;;;;;3.57;2.13;;;;;;;16.16;78.10;99358.78;4948728;28;20668;-71
2022/05/24 03:22:13;;;;;;;2.20;2.07;;;;;;;16.22;78.94;99366.25;4949802;28;20746;-70
2022/05/24 03:24:40;;;;;;;4.10;2.00;;;;;;;16.22;78.32;99362.78;4948690;28;20198;-71
2022/05/24 03:27:11;;;;;;;3.13;2.17;;;;;;;16.25;78.62;99367.81;4949064;28;20594;-71
2022/05/24 03:29:38;;;;;;;2.50;1.97;;;;;;;16.26;78.16;99369.50;4950831;28;20227;-70
2022/05/24 03:32:05;;;;;;;1.97;1.87;;;;;;;16.27;79.12;99371.22;4958116;28;20290;-70
2022/05/24 03:34:32;;;;;;;4.23;2.10;;;;;;;16.28;79.41;99368.44;4950638;28;20201;-71
2022/05/24 03:36:58;;;;;;;2.67;2.20;;;;;;;16.31;78.69;99370.03;4955795;28;20210;-71
2022/05/24 03:39:24;;;;;;;2.30;2.10;;;;;;;16.33;79.48;99376.03;4947243;28;20751;-70
2022/05/24 03:41:51;;;;;;;3.03;2.40;;;;;;;16.35;79.64;99379.38;4954246;28;20202;-71
2022/05/24 03:44:19;;;;;;;3.53;2.10;;;;;;;16.37;79.18;99379.28;4950490;28;20231;-70
2022/05/24 03:46:46;;;;;;;5.13;2.10;;;;;;;16.38;79.52;99379.19;4953405;28;20249;-71
2022/05/24 03:49:53;;;;;;;2.70;2.20;;;;;;;16.39;80.43;99374.75;4948640;28;20617;-71
2022/05/24 03:52:20;;;;;;;3.00;2.20;;;;;;;16.42;81.23;99378.00;4945921;28;20237;-71
2022/05/24 03:54:46;;;;;;;3.07;1.90;;;;;;;16.44;81.60;99381.34;4939121;28;20199;-70
2022/05/24 03:59:58;;;;;;;4.60;1.90;;;;;;;16.50;81.77;99392.41;4948980;28;20199;-70
2022/05/24 04:02:25;;;;;;;4.87;2.30;;;;;;;16.52;82.55;99394.00;4950518;28;20256;-71
2022/05/24 04:04:51;;;;;;;1.87;1.77;;;;;;;16.56;82.93;99395.44;4947821;28;20202;-71
2022/05/24 04:07:18;;;;;;;1.93;1.80;;;;;;;16.60;82.60;99393.44;4946931;29;20217;-70
2022/05/24 04:09:45;;;;;;;2.63;2.20;;;;;;;16.65;82.99;99404.50;4948761;29;20233;-70
2022/05/24 04:12:11;;;;;;;2.33;2.00;;;;;;;16.70;82.20;99407.63;4947862;29;20207;-70
2022/05/24 04:14:38;;;;;;;2.73;2.43;;;;;;;16.75;81.88;99402.88;4950671;28;20202;-71
2022/05/24 04:17:06;;;;;;;4.60;2.23;;;;;;;16.78;83.29;99412.34;4949676;29;20325;-71
2022/05/24 04:19:32;;;;;;;4.40;2.10;;;;;;;16.81;82.94;99406.88;4948548;28;20228;-71
2022/05/24 04:21:58;;;;;;;2.93;2.07;;;;;;;16.83;83.67;99424.28;4945567;29;20207;-71
2022/05/24 04:24:25;;;;;;;3.57;1.77;;;;;;;16.86;84.91;99414.47;4945906;28;20267;-70
2022/05/24 04:26:51;;;;;;;2.30;2.10;;;;;;;16.86;87.63;99419.75;4950948;28;20217;-71
2022/05/24 04:29:18;;;;;;;2.53;2.33;;;;;;;16.85;89.39;99426.81;4946981;28;20226;-71
2022/05/24 04:31:45;;;;;;;2.90;1.90;;;;;;;16.83;90.85;99418.13;4951128;28;20199;-71
2022/05/24 04:34:16;;;;;;;3.40;1.93;;;;;;;16.80;94.51;99416.56;4915981;29;1003701;-70
2022/05/24 04:36:42;;;;;;;2.80;2.10;;;;;;;16.77;97.69;99415.94;4950001;28;20210;-71
2022/05/24 04:39:09;;;;;;;3.33;2.13;;;;;;;16.72;100.00;99408.38;4952013;28;20210;-71
2022/05/24 04:44:34;;;;;;;1.73;1.63;;;;;;;16.59;100.00;99404.94;4952776;28;20222;-71
2022/05/24 04:50:52;;;;;;;2.60;1.80;;;;;;;16.65;100.00;99415.00;4955285;28;20241;-70
2022/05/24 04:53:18;;;;;;;2.67;2.07;;;;;;;16.69;100.00;99413.84;4955270;28;20214;-70
2022/05/24 04:55:47;;;;;;;2.93;1.97;;;;;;;16.74;100.00;99419.63;4956531;28;20294;-71
2022/05/24 04:58:13;;;;;;;3.37;1.90;;;;;;;16.82;100.00;99424.34;4948171;28;20196;-71
2022/05/24 05:00:40;;;;;;;2.07;1.90;;;;;;;16.90;100.00;99413.31;4951092;28;20586;-69
2022/05/24 05:03:08;;;;;;;2.03;1.83;;;;;;;16.96;100.00;99420.78;4953375;28;21348;-71
2022/05/24 05:05:34;;;;;;;2.50;2.07;;;;;;;17.04;100.00;99426.31;4953640;28;20229;-70
2022/05/24 05:08:02;;;;;;;3.07;1.90;;;;;;;17.09;100.00;99423.34;4938341;29;20649;-70
2022/05/24 05:10:29;;;;;;;6.70;2.20;;;;;;;17.09;100.00;99420.72;4949741;28;20303;-71
2022/05/24 05:12:55;;;;;;;1.87;1.77;;;;;;;17.11;100.00;99424.91;4944897;28;20227;-70
2022/05/24 05:15:23;;;;;;;5.27;2.00;;;;;;;17.14;100.00;99424.69;4952794;28;20198;-70
2022/05/24 05:17:51;;;;;;;2.40;1.80;;;;;;;17.17;100.00;99426.28;4950730;28;20199;-70
2022/05/24 05:24:07;;;;;;;3.43;1.60;;;;;;;17.23;100.00;99437.19;4948222;28;20584;-70
2022/05/24 05:26:37;;;;;;;1.80;1.70;;;;;;;17.29;100.00;99437.69;4955519;28;20269;-71
2022/05/24 05:29:04;;;;;;;2.90;1.50;;;;;;;17.32;100.00;99440.13;4949786;28;20206;-70
2022/05/24 05:31:30;;;;;;;3.83;1.53;;;;;;;17.35;100.00;99439.91;4950001;28;20199;-71
2022/05/24 05:33:58;;;;;;;2.37;2.10;;;;;;;17.38;100.00;99453.69;4934765;28;20237;-71
2022/05/24 05:36:27;;;;;;;2.37;1.80;;;;;;;17.41;100.00;99461.38;4953811;28;20207;-70
2022/05/24 05:38:54;;;;;;;1.80;1.70;;;;;;;17.46;100.00;99450.47;4947917;28;20199;-70
2022/05/24 05:41:26;;;;;;;2.90;1.63;;;;;;;17.55;100.00;99457.72;4954111;28;20217;-70
2022/05/24 05:43:53;;;;;;;2.50;1.70;;;;;;;17.63;100.00;99459.78;4954523;28;20217;-71
2022/05/24 05:46:19;;;;;;;3.23;1.83;;;;;;;17.70;100.00;99466.28;4950889;28;20209;-70
2022/05/24 05:48:46;;;;;;;2.60;1.60;;;;;;;17.78;100.00;99463.06;4951633;28;20568;-70
2022/05/24 05:51:15;;;;;;;4.60;1.90;;;;;;;17.87;100.00;99467.72;4948862;28;20214;-71
2022/05/24 05:53:42;;;;;;;3.10;1.80;;;;;;;17.94;100.00;99471.56;4953730;28;20219;-70
2022/05/24 05:56:15;;;;;;;1.63;1.53;;;;;;;17.97;100.00;99476.59;4950868;28;20206;-71
2022/05/24 05:58:44;;;;;;;2.17;1.80;;;;;;;18.00;100.00;99486.06;4948594;28;20262;-70
2022/05/24 06:01:15;;;;;;;1.93;1.60;;;;;;;18.05;100.00;99481.31;4956195;28;20199;-71
2022/05/24 06:03:42;;;;;;;3.53;1.77;;;;;;;18.10;100.00;99492.34;4954674;28;20214;-71
2022/05/24 06:06:10;;;;;;;1.67;1.57;;;;;;;18.26;100.00;99494.66;4945830;28;20253;-71
2022/05/24 06:08:36;;;;;;;2.17;1.83;;;;;;;18.39;100.00;99496.38;4950809;28;20209;-70
2022/05/24 06:11:03;;;;;;;2.83;1.60;;;;;;;18.48;100.00;99501.75;4951345;28;20218;-72
2022/05/24 06:13:30;;;;;;;2.63;1.57;;;;;;;18.55;100.00;99499.50;4948407;28;20230;-71
2022/05/24 06:23:31;;;;;;;2.80;1.57;;;;;;;18.74;100.00;99525.31;4952948;28;20248;-71
2022/05/24 06:25:58;;;;;;;5.20;1.60;;;;;;;18.85;100.00;99527.97;4951842;28;20194;-71
2022/05/24 06:32:12;;;;;;;2.20;1.47;;;;;;;19.00;100.00;99533.03;4951465;28;20201;-72
2022/05/24 06:34:38;;;;;;;1.63;1.53;;;;;;;19.06;100.00;99537.81;4952418;28;20210;-72
2022/05/24 06:37:06;;;;;;;2.23;1.60;;;;;;;19.16;100.00;99541.44;4950908;29;20443;-71
2022/05/24 06:39:34;;;;;;;2.83;1.37;;;;;;;19.26;100.00;99550.31;4949676;29;20598;-71
2022/05/24 06:42:01;;;;;;;1.40;1.23;;;;;;;19.26;100.00;99542.38;4954453;28;20198;-71
2022/05/24 06:44:33;;;;;;;1.57;1.30;;;;;;;19.34;99.44;99546.22;4954728;28;20187;-72
2022/05/24 06:47:00;;;;;;;1.40;1.23;;;;;;;19.43;98.69;99541.00;4950622;28;20202;-71
2022/05/24 06:49:26;;;;;;;1.97;1.37;;;;;;;19.52;99.67;99536.78;4950821;29;20762;-70
2022/05/24 06:51:53;;;;;;;2.67;1.60;;;;;;;19.65;97.83;99541.94;4962460;28;20206;-71
2022/05/24 06:54:19;;;;;;;1.83;1.40;;;;;;;19.79;97.78;99544.34;4944538;28;20230;-71
2022/05/24 06:56:47;;;;;;;1.67;1.37;;;;;;;19.99;97.35;99547.97;4950746;28;20206;-71
2022/05/24 07:04:41;;;;;;;2.30;1.70;;;;;;;20.33;89.11;99562.84;4952010;28;20656;-71
2022/05/24 07:07:07;;;;;;;1.97;1.37;;;;;;;20.50;90.19;99564.94;4966178;28;20198;-71
2022/05/24 07:09:34;;;;;;;1.20;1.10;;;;;;;20.55;91.09;99577.78;4953015;28;20206;-71
2022/05/24 07:12:02;;;;;;;2.30;1.43;;;;;;;20.47;90.83;99578.41;4951919;28;20413;-72
2022/05/24 07:14:28;;;;;;;1.33;1.23;;;;;;;20.22;87.68;99583.09;4951385;28;20205;-72
2022/05/24 07:16:55;;;;;;;1.30;1.20;;;;;;;20.16;86.35;99593.38;4950382;28;20203;-72
2022/05/24 07:19:23;;;;;;;1.23;1.13;;;;;;;20.00;86.04;99596.44;4950081;28;20206;-72
2022/05/24 07:21:49;;;;;;;1.40;1.30;;;;;;;20.15;86.32;99586.41;4950273;28;20203;-71
2022/05/24 07:24:16;;;;;;;1.50;1.20;;;;;;;20.11;85.22;99585.00;4948441;28;20650;-71
2022/05/24 07:26:43;;;;;;;1.43;1.20;;;;;;;20.09;84.79;99597.47;4952944;28;20194;-71
2022/05/24 07:29:11;;;;;;;1.17;1.03;;;;;;;20.06;84.07;99580.06;4948598;29;20209;-72
2022/05/24 07:31:38;;;;;;;1.30;1.20;;;;;;;20.12;85.23;99576.94;4954620;28;20238;-70
2022/05/24 07:34:05;;;;;;;2.40;1.03;;;;;;;20.15;84.42;99595.16;4955298;28;20230;-70
2022/05/24 07:36:31;;;;;;;1.10;1.00;;;;;;;20.18;82.10;99591.44;4954295;28;20202;-71
2022/05/24 07:38:58;;;;;;;1.10;1.00;;;;;;;20.28;83.35;99596.81;4949789;28;20206;-71
2022/05/24 07:46:56;;;;;;;1.10;1.07;;;;;;;20.95;81.66;99607.03;4937191;29;20732;-71
2022/05/24 07:49:22;;;;;;;1.00;1.00;;;;;;;21.26;80.06;99607.03;4947980;28;20608;-71
2022/05/24 07:51:49;;;;;;;1.30;0.90;;;;;;;21.36;77.09;99607.06;4951511;28;20695;-72
2022/05/24 07:54:15;;;;;;;1.43;1.07;;;;;;;21.35;73.68;99616.84;4950181;28;20326;-72
2022/05/24 07:56:41;;;;;;;1.65;1.00;;;;;;;21.21;75.23;99611.88;4948887;28;20277;-71
2022/05/24 07:59:09;;;;;;;1.35;1.08;;;;;;;21.02;74.94;99615.31;4950164;28;20191;-72
2022/05/24 08:01:37;;;;;;;1.17;0.87;;;;;;;21.03;75.19;99627.56;4954589;28;20231;-71
2022/05/24 08:04:03;;;;;;;1.00;0.90;;;;;;;20.93;74.43;99638.13;4943851;28;20230;-71
2022/05/24 08:06:30;;;;;;;1.27;0.93;;;;;;;20.88;73.99;99652.72;4955338;28;20209;-71
2022/05/24 08:08:56;;;;;;;0.80;0.80;;;;;;;20.79;73.14;99651.69;4949711;29;20237;-71
2022/05/24 08:11:23;;;;;;;3.80;1.10;;;;;;;20.79;73.50;99659.63;4951782;28;20708;-70
2022/05/24 08:13:49;;;;;;;0.95;0.88;;;;;;;20.72;71.92;99658.47;4948919;28;20233;-71
2022/05/24 08:16:15;;;;;;;0.80;0.80;;;;;;;20.81;71.61;99668.31;4957655;28;20679;-71
2022/05/24 08:18:44;;;;;;;1.95;0.80;;;;;;;20.84;71.34;99662.72;4954833;28;20217;-71
2022/05/24 08:21:10;;;;;;;1.60;0.90;;;;;;;20.92;71.50;99662.09;4953281;28;20206;-71
2022/05/24 08:23:37;;;;;;;1.10;1.00;;;;;;;20.92;72.27;99655.00;4952714;28;20237;-71
2022/05/24 08:26:03;;;;;;;2.08;1.02;;;;;;;21.07;72.05;99662.59;4953583;28;20214;-72
2022/05/24 08:28:30;;;;;;;2.75;1.10;;;;;;;21.15;72.05;99665.44;4953253;29;20187;-71
2022/05/24 08:30:56;;;;;;;1.13;1.02;;;;;;;21.12;69.63;99669.19;4954697;28;20849;-71
2022/05/24 08:33:24;;;;;;;1.00;0.93;;;;;;;21.31;71.41;99665.78;4951946;29;20596;-71
2022/05/24 08:35:53;;;;;;;2.05;0.88;;;;;;;21.39;72.70;99667.81;4952297;28;20285;-71
2022/05/24 08:38:19;;;;;;;0.82;0.82;;;;;;;21.52;71.97;99670.25;4951798;28;20206;-71
2022/05/24 08:40:48;;;;;;;1.35;1.08;;;;;;;21.66;70.69;99677.00;4953326;28;20684;-71
2022/05/24 08:43:48;;;;;;;1.50;1.20;;;;;;;21.68;69.71;99678.53;4951159;29;20230;-71
2022/05/24 08:49:05;;;;;;;1.30;1.20;;;;;;;21.79;67.31;99687.38;4952029;28;20563;-71
2022/05/24 08:51:39;;;;;;;1.13;1.02;;;;;;;21.73;68.09;99691.41;4946932;28;20603;-70
2022/05/24 08:54:09;;;;;;;1.20;1.10;;;;;;;21.56;66.89;99698.16;4949131;29;20223;-71
2022/05/24 08:56:42;;;;;;;1.52;1.20;;;;;;;21.41;66.96;99705.63;4952509;28;20285;-72
2022/05/24 08:59:16;;;;;;;1.02;0.90;;;;;;;21.34;68.98;99699.16;4951195;28;20214;-71
2022/05/24 09:01:44;;;;;;;1.48;1.17;;;;;;;21.18;67.61;99700.47;4953765;28;20712;-71
2022/05/24 09:04:13;;;;;;;1.40;1.15;;;;;;;21.15;68.13;99697.25;4952013;28;20261;-70
2022/05/24 09:06:45;;;;;;;3.60;1.25;;;;;;;21.16;68.42;99694.47;4950752;28;20222;-70
2022/05/24 09:09:33;;;;;;;1.20;1.10;;;;;;;21.26;68.33;99691.84;4952482;28;20203;-71
2022/05/24 09:12:24;;;;;;;1.10;1.00;;;;;;;21.62;70.25;99691.47;4954785;28;20233;-71
2022/05/24 09:15:02;;;;;;;1.30;1.20;;;;;;;21.77;66.72;99698.09;4953135;28;20271;-71
2022/05/24 09:17:38;;;;;;;1.10;1.00;;;;;;;22.01;68.54;99697.75;4956853;28;20187;-71
2022/05/24 09:20:11;;;;;;;2.75;1.40;;;;;;;21.97;65.94;99706.13;4955642;28;20203;-70
2022/05/24 09:22:39;;;;;;;1.42;1.33;;;;;;;21.97;65.93;99706.97;4955010;28;20227;-71
2022/05/24 09:25:06;;;;;;;2.15;1.15;;;;;;;22.07;67.89;99705.16;4953510;28;20213;-72
2022/05/24 09:27:49;;;;;;;1.48;1.38;;;;;;;22.10;66.90;99707.56;4952687;28;20203;-72
2022/05/24 09:30:24;;;;;;;1.30;1.20;;;;;;;22.29;67.99;99703.28;4951392;28;20257;-72
2022/05/24 09:32:51;;;;;;;1.80;1.40;;;;;;;22.32;63.57;99718.94;4963607;28;20232;-72
2022/05/24 09:35:22;;;;;;;1.40;1.30;;;;;;;22.19;62.46;99726.31;4952234;28;20221;-72
2022/05/24 09:38:13;;;;;;;1.83;1.40;;;;;;;22.16;64.31;99730.06;4951291;28;20195;-72
2022/05/24 09:40:50;;;;;;;1.30;1.20;;;;;;;22.00;64.69;99733.22;4960689;28;20205;-71
2022/05/24 09:43:26;;;;;;;1.35;1.25;;;;;;;21.71;65.41;99728.66;4957784;28;20226;-72
2022/05/24 09:46:00;;;;;;;1.40;1.30;;;;;;;21.93;66.91;99718.81;4950447;28;20202;-71
2022/05/24 09:48:29;;;;;;;3.88;1.70;;;;;;;22.22;66.50;99724.22;4950480;28;20213;-70
2022/05/24 09:50:57;;;;;;;1.55;1.30;;;;;;;22.46;65.88;99720.34;4949243;28;20631;-71
2022/05/24 09:53:27;;;;;;;9.07;3.42;;;;;;;22.31;65.37;99733.19;4958116;28;20226;-72
2022/05/24 09:55:59;;;;;;;2.92;2.55;;;;;;;22.10;66.19;99727.97;4953332;28;20216;-71
2022/05/24 09:58:29;;;;;;;2.97;2.67;;;;;;;22.17;68.56;99733.56;4950742;28;20206;-72
2022/05/24 10:00:59;;;;;;;4.57;3.25;;;;;;;22.20;67.22;99744.75;4957372;28;20205;-72
2022/05/24 10:03:30;;;;;;;1.63;1.52;;;;;;;22.10;64.60;99751.84;4952314;28;20246;-72
2022/05/24 10:06:06;;;;;;;1.27;1.20;;;;;;;21.88;64.58;99750.22;4957141;28;20211;-71
2022/05/24 10:08:37;;;;;;;1.35;1.25;;;;;;;21.67;64.40;99755.56;4954296;28;20194;-71
2022/05/24 10:11:06;;;;;;;1.38;1.27;;;;;;;21.50;66.86;99757.06;4956738;28;20586;-71
2022/05/24 10:13:44;;;;;;;1.40;1.30;;;;;;;21.28;65.91;99768.59;4949330;29;20227;-71
2022/05/24 10:16:18;;;;;;;1.63;1.50;;;;;;;21.18;67.41;99766.72;4950938;28;20734;-71
2022/05/24 10:19:10;;;;;;;1.77;1.27;;;;;;;21.03;67.88;99759.22;4949623;28;20206;-71
2022/05/24 10:21:41;;;;;;;1.60;1.50;;;;;;;20.93;69.39;99757.34;4946977;28;20203;-71
2022/05/24 10:24:23;;;;;;;1.48;1.38;;;;;;;20.88;71.36;99748.09;4949333;28;20223;-70
2022/05/24 10:26:57;;;;;;;2.40;1.55;;;;;;;20.69;70.68;99757.56;4946957;28;20198;-70
2022/05/24 10:29:36;;;;;;;1.80;1.70;;;;;;;20.62;71.44;99756.41;4951855;28;20530;-70
2022/05/24 10:32:08;;;;;;;2.97;1.50;;;;;;;20.59;69.69;99741.53;4949245;28;20735;-71
2022/05/24 10:40:31;;;;;;;1.70;1.60;;;;;;;21.66;72.29;99745.97;4940616;28;20219;-70
2022/05/24 10:43:15;;;;;;;1.58;1.40;;;;;;;21.73;68.57;99744.47;4950484;29;20226;-70
2022/05/24 10:45:52;;;;;;;1.80;1.70;;;;;;;21.99;69.23;99741.34;4948837;29;20210;-71
2022/05/24 10:48:29;;;;;;;1.67;1.58;;;;;;;21.94;65.62;99747.03;4946758;29;20274;-70
2022/05/24 10:51:01;;;;;;;3.40;1.80;;;;;;;21.99;65.29;99736.03;4951508;28;20308;-71
2022/05/24 10:53:37;;;;;;;1.55;1.45;;;;;;;22.16;66.44;99738.00;4947857;28;20214;-70
2022/05/24 10:56:09;;;;;;;3.65;1.55;;;;;;;22.16;65.24;99735.34;4951085;28;20563;-71
2022/05/24 10:58:38;;;;;;;1.77;1.67;;;;;;;22.28;62.41;99736.94;4949930;29;20634;-70
2022/05/24 11:01:09;;;;;;;1.83;1.65;;;;;;;22.22;63.57;99748.09;4949661;28;20837;-70
2022/05/24 11:03:43;;;;;;;1.80;1.60;;;;;;;22.25;64.60;99741.66;4955216;28;20228;-71
2022/05/24 11:06:16;;;;;;;6.35;1.70;;;;;;;22.24;63.69;99730.22;4950185;28;20203;-70
2022/05/24 11:08:48;;;;;;;2.22;1.70;;;;;;;22.22;64.80;99731.34;4949939;28;20195;-71
2022/05/24 11:11:28;;;;;;;1.60;1.50;;;;;;;22.20;63.71;99735.94;4951649;28;20221;-70
2022/05/24 11:14:04;;;;;;;1.40;1.30;;;;;;;22.25;66.03;99725.75;4954405;28;20293;-70
2022/05/24 11:16:39;;;;;;;2.38;1.50;;;;;;;22.53;65.36;99736.56;4949705;29;20194;-71
2022/05/24 11:19:10;;;;;;;1.70;1.60;;;;;;;22.73;62.28;99740.91;4949784;29;20368;-70
2022/05/24 11:21:43;;;;;;;1.90;1.75;;;;;;;22.85;61.54;99744.28;4944517;28;20214;-70
2022/05/24 11:24:14;;;;;;;1.65;1.55;;;;;;;22.91;63.88;99746.38;4945718;28;20874;-71
2022/05/24 11:26:50;;;;;;;1.50;1.40;;;;;;;23.11;61.02;99752.53;4949677;28;20202;-70
2022/05/24 11:29:24;;;;;;;1.60;1.50;;;;;;;23.37;61.34;99755.41;4930211;28;20203;-70
2022/05/24 11:31:58;;;;;;;1.52;1.42;;;;;;;23.13;59.97;99758.56;4952624;28;20253;-71
2022/05/24 11:34:27;;;;;;;1.55;1.38;;;;;;;22.79;58.52;99758.13;4944626;28;20221;-71
2022/05/24 11:37:05;;;;;;;1.45;1.35;;;;;;;22.79;60.84;99750.16;4953624;28;20675;-71
2022/05/24 11:39:34;;;;;;;1.60;1.50;;;;;;;23.05;59.08;99748.63;4953151;28;20202;-71
2022/05/24 11:42:23;;;;;;;2.47;1.50;;;;;;;23.34;59.74;99745.09;4947819;28;20215;-71
2022/05/24 11:44:50;;;;;;;2.13;1.48;;;;;;;23.56;59.78;99746.53;4942040;28;20195;-71
2022/05/24 11:47:50;;;;;;;1.25;1.17;;;;;;;23.57;58.61;99750.03;4948017;28;20573;-71
2022/05/24 11:50:43;;;;;;;1.50;1.40;;;;;;;23.87;58.20;99754.31;4949031;28;20214;-71
2022/05/24 11:53:11;;;;;;;1.73;1.55;;;;;;;23.78;56.56;99765.78;4948275;28;20233;-71
2022/05/24 11:55:45;;;;;;;1.25;1.15;;;;;;;23.74;58.97;99769.72;4955219;28;20208;-71
2022/05/24 11:58:41;;;;;;;1.02;1.02;;;;;;;23.70;56.45;99768.34;4948567;29;20207;-70
2022/05/24 12:01:13;;;;;;;1.30;1.20;;;;;;;23.67;59.88;99764.16;4951863;28;20202;-70
2022/05/24 12:09:16;;;;;;;1.25;1.15;;;;;;;23.67;56.58;99781.94;4946365;28;20230;-70
2022/05/24 12:11:44;;;;;;;1.08;1.02;;;;;;;23.58;56.47;99781.81;4951910;28;20213;-70
2022/05/24 12:14:16;;;;;;;1.10;1.10;;;;;;;23.55;57.02;99787.44;4946874;28;20241;-71
2022/05/24 12:16:47;;;;;;;1.92;1.23;;;;;;;23.84;58.16;99785.72;4951538;29;20201;-71
2022/05/24 12:19:43;;;;;;;1.30;1.20;;;;;;;23.86;57.31;99783.72;4947795;28;20198;-70
2022/05/24 12:22:11;;;;;;;2.60;1.27;;;;;;;24.04;55.14;99775.81;4954807;28;20248;-71
2022/05/24 12:24:54;;;;;;;1.10;0.93;;;;;;;24.21;54.29;99787.50;4954386;28;20207;-70
2022/05/24 12:27:38;;;;;;;1.48;1.13;;;;;;;24.19;51.48;99788.47;4955641;28;20285;-71
2022/05/24 12:30:21;;;;;;;1.67;0.95;;;;;;;24.09;51.73;99781.53;4955361;28;20213;-69
2022/05/24 12:32:49;;;;;;;3.58;1.02;;;;;;;24.28;51.64;99791.25;4953160;28;20230;-70
2022/05/24 12:35:18;;;;;;;1.33;1.08;;;;;;;24.37;51.07;99787.66;4954875;28;20198;-70
2022/05/24 12:37:47;;;;;;;0.98;0.93;;;;;;;24.36;49.50;99797.50;4950973;28;20195;-70
2022/05/24 12:40:18;;;;;;;1.15;1.00;;;;;;;24.53;53.63;99790.53;4954336;28;20206;-70
2022/05/24 12:42:47;;;;;;;1.90;1.00;;;;;;;24.67;50.67;99780.34;4956337;28;20214;-70
2022/05/24 12:45:21;;;;;;;1.10;1.00;;;;;;;24.81;51.67;99781.66;4953594;28;20253;-70
2022/05/24 12:47:51;;;;;;;1.20;1.10;;;;;;;24.52;51.17;99782.66;4954804;28;20199;-70
2022/05/24 12:50:34;;;;;;;1.02;0.95;;;;;;;23.89;49.63;99792.25;4948063;28;20559;-71
2022/05/24 12:53:04;;;;;;;0.80;0.80;;;;;;;23.70;52.07;99790.47;4951225;28;20238;-70
2022/05/24 12:58:34;;;;;;;1.10;1.00;;;;;;;23.50;52.58;99800.34;4952503;28;20217;-71
2022/05/24 13:01:15;;;;;;;1.58;1.10;;;;;;;23.63;52.31;99802.69;4955414;28;20225;-70
2022/05/24 13:04:07;;;;;;;4.22;1.10;;;;;;;23.92;53.15;99801.75;4952289;28;20210;-70
2022/05/24 13:06:44;;;;;;;1.25;1.15;;;;;;;24.26;53.65;99793.22;4933447;29;20198;-70
2022/05/24 13:09:29;;;;;;;0.90;0.90;;;;;;;24.39;52.11;99793.69;4950443;28;20213;-71
2022/05/24 13:12:00;;;;;;;1.52;0.90;;;;;;;24.46;50.66;99789.44;4950364;28;20214;-70
2022/05/24 13:14:44;;;;;;;1.10;0.98;;;;;;;24.42;51.47;99788.06;4953420;28;20570;-71
2022/05/24 13:17:14;;;;;;;0.82;0.82;;;;;;;24.52;51.57;99793.31;4953455;28;20217;-70
2022/05/24 13:19:50;;;;;;;0.93;0.93;;;;;;;24.54;48.71;99796.72;4952891;28;20193;-71
2022/05/24 13:22:17;;;;;;;1.10;0.90;;;;;;;24.36;49.20;99797.50;4958569;28;20694;-71